sensor_id;sensor_type;location;lat;lon;timestamp;temperature;humidity
18160;DHT22;9205;52.032;4.314;2023-05-14T00:00:29;12.90;99.90
18160;DHT22;9205;52.032;4.314;2023-05-14T00:02:57;12.90;99.90
18160;DHT22;9205;52.032;4.314;2023-05-14T00:05:24;12.90;99.90
18160;DHT22;9205;52.032;4.314;2023-05-14T00:07:53;12.80;99.90
18160;DHT22;9205;52.032;4.314;2023-05-14T00:10:20;12.80;99.90
18160;DHT22;9205;52.032;4.314;2023-05-14T00:12:47;12.80;99.90
18160;DHT22;9205;52.032;4.314;2023-05-14T00:15:14;12.80;99.90
18160;DHT22;9205;52.032;4.314;2023-05-14T00:17:42;12.80;99.90
18160;DHT22;9205;52.032;4.314;2023-05-14T00:20:10;12.70;99.90
18160;DHT22;9205;52.032;4.314;2023-05-14T00:22:38;12.80;99.90
18160;DHT22;9205;52.032;4.314;2023-05-14T00:25:08;12.80;99.90
18160;DHT22;9205;52.032;4.314;2023-05-14T00:27:35;12.80;99.90
18160;DHT22;9205;52.032;4.314;2023-05-14T00:30:04;12.70;99.90
18160;DHT22;9205;52.032;4.314;2023-05-14T00:32:32;12.70;99.90
18160;DHT22;9205;52.032;4.314;2023-05-14T00:34:59;12.80;99.90
18160;DHT22;9205;52.032;4.314;2023-05-14T00:37:27;12.60;99.90
18160;DHT22;9205;52.032;4.314;2023-05-14T00:39:55;12.60;99.90
18160;DHT22;9205;52.032;4.314;2023-05-14T00:42:24;12.70;99.90
18160;DHT22;9205;52.032;4.314;2023-05-14T00:44:51;12.80;99.90
18160;DHT22;9205;52.032;4.314;2023-05-14T00:47:19;12.80;99.90
18160;DHT22;9205;52.032;4.314;2023-05-14T00:49:46;12.60;99.90
18160;DHT22;9205;52.032;4.314;2023-05-14T00:52:14;12.80;99.90
18160;DHT22;9205;52.032;4.314;2023-05-14T00:54:43;12.80;99.90
18160;DHT22;9205;52.032;4.314;2023-05-14T00:57:13;12.60;99.90
18160;DHT22;9205;52.032;4.314;2023-05-14T00:59:42;12.60;99.90
18160;DHT22;9205;52.032;4.314;2023-05-14T01:02:10;12.70;99.90
18160;DHT22;9205;52.032;4.314;2023-05-14T01:04:37;12.50;99.90
18160;DHT22;9205;52.032;4.314;2023-05-14T01:07:11;12.50;99.90
18160;DHT22;9205;52.032;4.314;2023-05-14T01:09:49;12.60;99.90
18160;DHT22;9205;52.032;4.314;2023-05-14T01:12:26;12.50;99.90
18160;DHT22;9205;52.032;4.314;2023-05-14T01:15:06;12.50;99.90
18160;DHT22;9205;52.032;4.314;2023-05-14T01:17:41;12.60;99.90
18160;DHT22;9205;52.032;4.314;2023-05-14T01:20:11;12.50;99.90
18160;DHT22;9205;52.032;4.314;2023-05-14T01:22:40;12.40;99.90
18160;DHT22;9205;52.032;4.314;2023-05-14T01:25:08;12.50;99.90
18160;DHT22;9205;52.032;4.314;2023-05-14T01:27:40;12.50;99.90
18160;DHT22;9205;52.032;4.314;2023-05-14T01:30:16;12.30;99.90
18160;DHT22;9205;52.032;4.314;2023-05-14T01:32:50;12.30;99.90
18160;DHT22;9205;52.032;4.314;2023-05-14T01:35:23;12.40;99.90
18160;DHT22;9205;52.032;4.314;2023-05-14T01:37:55;12.30;99.90
18160;DHT22;9205;52.032;4.314;2023-05-14T01:40:24;12.30;99.90
18160;DHT22;9205;52.032;4.314;2023-05-14T01:42:52;12.30;99.90
18160;DHT22;9205;52.032;4.314;2023-05-14T01:45:21;12.10;99.90
18160;DHT22;9205;52.032;4.314;2023-05-14T01:47:49;12.20;99.90
18160;DHT22;9205;52.032;4.314;2023-05-14T01:50:16;12.30;99.90
18160;DHT22;9205;52.032;4.314;2023-05-14T01:52:44;12.40;99.90
18160;DHT22;9205;52.032;4.314;2023-05-14T01:55:14;12.20;99.90
18160;DHT22;9205;52.032;4.314;2023-05-14T01:57:42;12.40;99.90
18160;DHT22;9205;52.032;4.314;2023-05-14T02:00:10;12.20;99.90
18160;DHT22;9205;52.032;4.314;2023-05-14T02:02:41;12.30;99.90
18160;DHT22;9205;52.032;4.314;2023-05-14T02:05:11;12.20;99.90
18160;DHT22;9205;52.032;4.314;2023-05-14T02:07:39;12.40;99.90
18160;DHT22;9205;52.032;4.314;2023-05-14T02:10:08;12.30;99.90
18160;DHT22;9205;52.032;4.314;2023-05-14T02:12:38;12.20;99.90
18160;DHT22;9205;52.032;4.314;2023-05-14T02:15:07;12.10;99.90
18160;DHT22;9205;52.032;4.314;2023-05-14T02:17:35;12.00;99.90
18160;DHT22;9205;52.032;4.314;2023-05-14T02:20:03;12.20;99.90
18160;DHT22;9205;52.032;4.314;2023-05-14T02:22:32;12.10;99.90
18160;DHT22;9205;52.032;4.314;2023-05-14T02:24:59;12.00;99.90
18160;DHT22;9205;52.032;4.314;2023-05-14T02:27:26;12.20;99.90
18160;DHT22;9205;52.032;4.314;2023-05-14T02:29:55;12.20;99.90
18160;DHT22;9205;52.032;4.314;2023-05-14T02:32:25;12.00;99.90
18160;DHT22;9205;52.032;4.314;2023-05-14T02:34:52;12.20;99.90
18160;DHT22;9205;52.032;4.314;2023-05-14T02:37:20;12.10;99.90
18160;DHT22;9205;52.032;4.314;2023-05-14T02:39:47;11.90;99.90
18160;DHT22;9205;52.032;4.314;2023-05-14T02:42:14;12.20;99.90
18160;DHT22;9205;52.032;4.314;2023-05-14T02:44:42;12.10;99.90
18160;DHT22;9205;52.032;4.314;2023-05-14T02:47:11;11.90;99.90
18160;DHT22;9205;52.032;4.314;2023-05-14T02:49:38;12.10;99.90
18160;DHT22;9205;52.032;4.314;2023-05-14T02:52:06;12.00;99.90
18160;DHT22;9205;52.032;4.314;2023-05-14T02:54:33;12.20;99.90
18160;DHT22;9205;52.032;4.314;2023-05-14T02:57:00;12.00;99.90
18160;DHT22;9205;52.032;4.314;2023-05-14T02:59:28;12.00;99.90
18160;DHT22;9205;52.032;4.314;2023-05-14T03:01:56;11.90;99.90
18160;DHT22;9205;52.032;4.314;2023-05-14T03:04:24;12.20;99.90
18160;DHT22;9205;52.032;4.314;2023-05-14T03:06:52;11.80;99.90
18160;DHT22;9205;52.032;4.314;2023-05-14T03:09:19;11.90;99.90
18160;DHT22;9205;52.032;4.314;2023-05-14T03:11:46;12.00;99.90
18160;DHT22;9205;52.032;4.314;2023-05-14T03:14:13;11.90;99.90
18160;DHT22;9205;52.032;4.314;2023-05-14T03:16:41;11.90;99.90
18160;DHT22;9205;52.032;4.314;2023-05-14T03:19:08;12.10;99.90
18160;DHT22;9205;52.032;4.314;2023-05-14T03:21:36;11.90;99.90
18160;DHT22;9205;52.032;4.314;2023-05-14T03:24:04;11.90;99.90
18160;DHT22;9205;52.032;4.314;2023-05-14T03:26:32;11.90;99.90
18160;DHT22;9205;52.032;4.314;2023-05-14T03:28:59;12.10;99.90
18160;DHT22;9205;52.032;4.314;2023-05-14T03:31:26;11.90;99.90
18160;DHT22;9205;52.032;4.314;2023-05-14T03:33:55;12.10;99.90
18160;DHT22;9205;52.032;4.314;2023-05-14T03:36:22;12.00;99.90
18160;DHT22;9205;52.032;4.314;2023-05-14T03:38:51;12.00;99.90
18160;DHT22;9205;52.032;4.314;2023-05-14T03:41:18;12.10;99.90
18160;DHT22;9205;52.032;4.314;2023-05-14T03:43:46;12.10;99.90
18160;DHT22;9205;52.032;4.314;2023-05-14T03:46:14;12.10;99.90
18160;DHT22;9205;52.032;4.314;2023-05-14T03:48:41;12.10;99.90
18160;DHT22;9205;52.032;4.314;2023-05-14T03:51:08;11.90;99.90
18160;DHT22;9205;52.032;4.314;2023-05-14T03:53:35;12.00;99.90
18160;DHT22;9205;52.032;4.314;2023-05-14T03:56:04;12.10;99.90
18160;DHT22;9205;52.032;4.314;2023-05-14T03:58:32;12.00;99.90
18160;DHT22;9205;52.032;4.314;2023-05-14T04:00:59;11.80;99.90
18160;DHT22;9205;52.032;4.314;2023-05-14T04:03:26;12.00;99.90
18160;DHT22;9205;52.032;4.314;2023-05-14T04:05:54;12.00;99.90
18160;DHT22;9205;52.032;4.314;2023-05-14T04:08:21;11.80;99.90
18160;DHT22;9205;52.032;4.314;2023-05-14T04:10:48;12.00;99.90
18160;DHT22;9205;52.032;4.314;2023-05-14T04:13:17;12.00;99.90
18160;DHT22;9205;52.032;4.314;2023-05-14T04:15:44;11.80;99.90
18160;DHT22;9205;52.032;4.314;2023-05-14T04:18:12;11.90;99.90
18160;DHT22;9205;52.032;4.314;2023-05-14T04:20:39;11.90;99.90
18160;DHT22;9205;52.032;4.314;2023-05-14T04:23:07;11.90;99.90
18160;DHT22;9205;52.032;4.314;2023-05-14T04:25:34;12.00;99.90
18160;DHT22;9205;52.032;4.314;2023-05-14T04:28:01;11.90;99.90
18160;DHT22;9205;52.032;4.314;2023-05-14T04:30:30;12.10;99.90
18160;DHT22;9205;52.032;4.314;2023-05-14T04:32:57;11.90;99.90
18160;DHT22;9205;52.032;4.314;2023-05-14T04:35:24;11.90;99.90
18160;DHT22;9205;52.032;4.314;2023-05-14T04:37:51;11.90;99.90
18160;DHT22;9205;52.032;4.314;2023-05-14T04:40:18;12.10;99.90
18160;DHT22;9205;52.032;4.314;2023-05-14T04:42:47;12.00;99.90
18160;DHT22;9205;52.032;4.314;2023-05-14T04:45:14;12.00;99.90
18160;DHT22;9205;52.032;4.314;2023-05-14T04:47:43;12.00;99.90
18160;DHT22;9205;52.032;4.314;2023-05-14T04:50:10;12.20;99.90
18160;DHT22;9205;52.032;4.314;2023-05-14T04:52:38;12.30;99.90
18160;DHT22;9205;52.032;4.314;2023-05-14T04:55:06;12.00;99.90
18160;DHT22;9205;52.032;4.314;2023-05-14T04:57:33;11.90;99.90
18160;DHT22;9205;52.032;4.314;2023-05-14T05:00:01;12.00;99.90
18160;DHT22;9205;52.032;4.314;2023-05-14T05:02:30;11.90;99.90
18160;DHT22;9205;52.032;4.314;2023-05-14T05:05:01;11.80;99.90
18160;DHT22;9205;52.032;4.314;2023-05-14T05:07:28;12.00;99.90
18160;DHT22;9205;52.032;4.314;2023-05-14T05:09:55;12.10;99.90
18160;DHT22;9205;52.032;4.314;2023-05-14T05:12:23;12.10;99.90
18160;DHT22;9205;52.032;4.314;2023-05-14T05:14:50;12.10;99.90
18160;DHT22;9205;52.032;4.314;2023-05-14T05:17:17;12.00;99.90
18160;DHT22;9205;52.032;4.314;2023-05-14T05:19:45;12.10;99.90
18160;DHT22;9205;52.032;4.314;2023-05-14T05:22:14;11.90;99.90
18160;DHT22;9205;52.032;4.314;2023-05-14T05:24:41;11.90;99.90
18160;DHT22;9205;52.032;4.314;2023-05-14T05:27:08;12.00;99.90
18160;DHT22;9205;52.032;4.314;2023-05-14T05:29:36;12.00;99.90
18160;DHT22;9205;52.032;4.314;2023-05-14T05:32:03;12.10;99.90
18160;DHT22;9205;52.032;4.314;2023-05-14T05:34:32;12.10;99.90
18160;DHT22;9205;52.032;4.314;2023-05-14T05:36:59;12.00;99.90
18160;DHT22;9205;52.032;4.314;2023-05-14T05:39:28;12.10;99.90
18160;DHT22;9205;52.032;4.314;2023-05-14T05:41:59;12.20;99.90
18160;DHT22;9205;52.032;4.314;2023-05-14T05:44:27;12.10;99.90
18160;DHT22;9205;52.032;4.314;2023-05-14T05:46:54;11.90;99.90
18160;DHT22;9205;52.032;4.314;2023-05-14T05:49:22;11.90;99.90
18160;DHT22;9205;52.032;4.314;2023-05-14T05:51:49;12.00;99.90
18160;DHT22;9205;52.032;4.314;2023-05-14T05:54:16;12.00;99.90
18160;DHT22;9205;52.032;4.314;2023-05-14T05:56:45;12.10;99.90
18160;DHT22;9205;52.032;4.314;2023-05-14T05:59:12;12.00;99.90
18160;DHT22;9205;52.032;4.314;2023-05-14T06:01:39;12.20;99.90
18160;DHT22;9205;52.032;4.314;2023-05-14T06:04:08;12.10;99.90
18160;DHT22;9205;52.032;4.314;2023-05-14T06:06:35;12.30;99.90
18160;DHT22;9205;52.032;4.314;2023-05-14T06:09:02;12.40;99.90
18160;DHT22;9205;52.032;4.314;2023-05-14T06:11:31;12.40;99.90
18160;DHT22;9205;52.032;4.314;2023-05-14T06:14:00;12.30;99.90
18160;DHT22;9205;52.032;4.314;2023-05-14T06:16:27;12.30;99.90
18160;DHT22;9205;52.032;4.314;2023-05-14T06:18:54;12.30;99.90
18160;DHT22;9205;52.032;4.314;2023-05-14T06:21:21;12.30;99.90
18160;DHT22;9205;52.032;4.314;2023-05-14T06:23:49;12.50;99.90
18160;DHT22;9205;52.032;4.314;2023-05-14T06:26:16;12.40;99.90
18160;DHT22;9205;52.032;4.314;2023-05-14T06:28:43;12.70;99.90
18160;DHT22;9205;52.032;4.314;2023-05-14T06:31:12;12.70;99.90
18160;DHT22;9205;52.032;4.314;2023-05-14T06:33:39;12.70;99.90
18160;DHT22;9205;52.032;4.314;2023-05-14T06:36:07;12.50;99.90
18160;DHT22;9205;52.032;4.314;2023-05-14T06:38:35;12.80;99.90
18160;DHT22;9205;52.032;4.314;2023-05-14T06:41:02;12.60;99.90
18160;DHT22;9205;52.032;4.314;2023-05-14T06:43:29;12.70;99.90
18160;DHT22;9205;52.032;4.314;2023-05-14T06:45:57;12.80;99.90
18160;DHT22;9205;52.032;4.314;2023-05-14T06:48:26;12.70;99.90
18160;DHT22;9205;52.032;4.314;2023-05-14T06:50:54;12.60;99.90
18160;DHT22;9205;52.032;4.314;2023-05-14T06:53:21;12.80;99.90
18160;DHT22;9205;52.032;4.314;2023-05-14T06:55:49;12.80;99.90
18160;DHT22;9205;52.032;4.314;2023-05-14T06:58:16;12.90;99.90
18160;DHT22;9205;52.032;4.314;2023-05-14T07:00:43;12.90;99.90
18160;DHT22;9205;52.032;4.314;2023-05-14T07:03:10;13.20;99.90
18160;DHT22;9205;52.032;4.314;2023-05-14T07:05:39;12.90;99.90
18160;DHT22;9205;52.032;4.314;2023-05-14T07:08:06;13.10;99.90
18160;DHT22;9205;52.032;4.314;2023-05-14T07:10:34;13.10;99.90
18160;DHT22;9205;52.032;4.314;2023-05-14T07:13:01;13.00;99.90
18160;DHT22;9205;52.032;4.314;2023-05-14T07:15:29;13.10;99.90
18160;DHT22;9205;52.032;4.314;2023-05-14T07:17:56;13.20;99.90
18160;DHT22;9205;52.032;4.314;2023-05-14T07:20:23;13.30;99.90
18160;DHT22;9205;52.032;4.314;2023-05-14T07:22:52;13.20;99.90
18160;DHT22;9205;52.032;4.314;2023-05-14T07:25:20;13.20;99.90
18160;DHT22;9205;52.032;4.314;2023-05-14T07:27:48;13.30;99.90
18160;DHT22;9205;52.032;4.314;2023-05-14T07:30:15;13.20;99.90
18160;DHT22;9205;52.032;4.314;2023-05-14T07:32:42;13.20;99.90
18160;DHT22;9205;52.032;4.314;2023-05-14T07:35:09;13.20;99.90
18160;DHT22;9205;52.032;4.314;2023-05-14T07:37:37;13.30;99.90
18160;DHT22;9205;52.032;4.314;2023-05-14T07:40:07;13.10;99.90
18160;DHT22;9205;52.032;4.314;2023-05-14T07:42:35;13.10;99.90
18160;DHT22;9205;52.032;4.314;2023-05-14T07:45:03;13.20;99.90
18160;DHT22;9205;52.032;4.314;2023-05-14T07:47:31;13.20;99.90
18160;DHT22;9205;52.032;4.314;2023-05-14T07:49:58;13.30;99.90
18160;DHT22;9205;52.032;4.314;2023-05-14T07:52:25;13.30;99.90
18160;DHT22;9205;52.032;4.314;2023-05-14T07:54:53;13.40;99.90
18160;DHT22;9205;52.032;4.314;2023-05-14T07:57:21;13.50;99.90
18160;DHT22;9205;52.032;4.314;2023-05-14T07:59:48;13.50;99.90
18160;DHT22;9205;52.032;4.314;2023-05-14T08:02:15;13.60;99.90
18160;DHT22;9205;52.032;4.314;2023-05-14T08:04:43;13.50;99.90
18160;DHT22;9205;52.032;4.314;2023-05-14T08:07:10;13.50;99.90
18160;DHT22;9205;52.032;4.314;2023-05-14T08:09:38;13.40;99.90
18160;DHT22;9205;52.032;4.314;2023-05-14T08:12:06;13.40;99.90
18160;DHT22;9205;52.032;4.314;2023-05-14T08:14:34;13.50;99.90
18160;DHT22;9205;52.032;4.314;2023-05-14T08:17:02;13.50;99.90
18160;DHT22;9205;52.032;4.314;2023-05-14T08:19:29;13.50;99.90
18160;DHT22;9205;52.032;4.314;2023-05-14T08:21:58;13.70;99.90
18160;DHT22;9205;52.032;4.314;2023-05-14T08:24:26;13.60;99.90
18160;DHT22;9205;52.032;4.314;2023-05-14T08:26:53;13.60;99.90
18160;DHT22;9205;52.032;4.314;2023-05-14T08:29:20;13.70;99.90
18160;DHT22;9205;52.032;4.314;2023-05-14T08:31:49;13.80;99.90
18160;DHT22;9205;52.032;4.314;2023-05-14T08:34:16;13.90;99.90
18160;DHT22;9205;52.032;4.314;2023-05-14T08:36:44;13.80;99.90
18160;DHT22;9205;52.032;4.314;2023-05-14T08:39:11;13.90;99.90
18160;DHT22;9205;52.032;4.314;2023-05-14T08:41:39;13.90;99.90
18160;DHT22;9205;52.032;4.314;2023-05-14T08:44:11;14.00;99.90
18160;DHT22;9205;52.032;4.314;2023-05-14T08:46:40;14.10;99.90
18160;DHT22;9205;52.032;4.314;2023-05-14T08:49:14;14.10;99.90
18160;DHT22;9205;52.032;4.314;2023-05-14T08:51:55;14.10;99.90
18160;DHT22;9205;52.032;4.314;2023-05-14T08:54:23;14.20;99.90
18160;DHT22;9205;52.032;4.314;2023-05-14T08:56:51;14.10;99.90
18160;DHT22;9205;52.032;4.314;2023-05-14T08:59:19;13.90;99.90
18160;DHT22;9205;52.032;4.314;2023-05-14T09:01:48;13.90;99.90
18160;DHT22;9205;52.032;4.314;2023-05-14T09:04:21;14.00;99.90
18160;DHT22;9205;52.032;4.314;2023-05-14T09:06:50;14.00;99.90
18160;DHT22;9205;52.032;4.314;2023-05-14T09:09:19;14.10;99.90
18160;DHT22;9205;52.032;4.314;2023-05-14T09:11:48;14.20;99.90
18160;DHT22;9205;52.032;4.314;2023-05-14T09:14:16;14.10;99.90
18160;DHT22;9205;52.032;4.314;2023-05-14T09:16:45;14.10;99.90
18160;DHT22;9205;52.032;4.314;2023-05-14T09:19:14;14.20;99.90
18160;DHT22;9205;52.032;4.314;2023-05-14T09:21:46;14.40;99.90
18160;DHT22;9205;52.032;4.314;2023-05-14T09:24:18;14.30;99.90
18160;DHT22;9205;52.032;4.314;2023-05-14T09:26:49;14.40;99.90
18160;DHT22;9205;52.032;4.314;2023-05-14T09:29:18;14.50;99.90
18160;DHT22;9205;52.032;4.314;2023-05-14T09:31:46;14.30;94.30
18160;DHT22;9205;52.032;4.314;2023-05-14T09:34:22;14.20;65.00
18160;DHT22;9205;52.032;4.314;2023-05-14T09:36:54;14.10;50.80
18160;DHT22;9205;52.032;4.314;2023-05-14T09:39:23;14.00;35.60
18160;DHT22;9205;52.032;4.314;2023-05-14T09:41:50;13.90;41.80
18160;DHT22;9205;52.032;4.314;2023-05-14T09:44:18;14.00;46.90
18160;DHT22;9205;52.032;4.314;2023-05-14T09:46:46;13.90;46.20
18160;DHT22;9205;52.032;4.314;2023-05-14T09:49:13;14.00;49.70
18160;DHT22;9205;52.032;4.314;2023-05-14T09:51:41;13.90;39.90
18160;DHT22;9205;52.032;4.314;2023-05-14T09:54:09;14.00;47.90
18160;DHT22;9205;52.032;4.314;2023-05-14T09:56:37;14.20;66.70
18160;DHT22;9205;52.032;4.314;2023-05-14T09:59:05;14.50;84.10
18160;DHT22;9205;52.032;4.314;2023-05-14T10:01:32;14.20;20.60
18160;DHT22;9205;52.032;4.314;2023-05-14T10:04:02;14.30;13.80
18160;DHT22;9205;52.032;4.314;2023-05-14T10:06:34;14.40;26.20
18160;DHT22;9205;52.032;4.314;2023-05-14T10:09:04;14.70;36.40
18160;DHT22;9205;52.032;4.314;2023-05-14T10:11:41;14.70;24.00
18160;DHT22;9205;52.032;4.314;2023-05-14T10:14:13;14.70;3.80
18160;DHT22;9205;52.032;4.314;2023-05-14T10:16:47;14.70;1.00
18160;DHT22;9205;52.032;4.314;2023-05-14T10:19:16;14.70;1.00
18160;DHT22;9205;52.032;4.314;2023-05-14T10:21:47;14.70;1.00
18160;DHT22;9205;52.032;4.314;2023-05-14T10:24:23;14.90;1.00
18160;DHT22;9205;52.032;4.314;2023-05-14T10:26:51;15.10;1.00
18160;DHT22;9205;52.032;4.314;2023-05-14T10:29:19;15.20;1.00
18160;DHT22;9205;52.032;4.314;2023-05-14T10:31:58;15.30;1.00
18160;DHT22;9205;52.032;4.314;2023-05-14T10:34:31;15.20;1.00
18160;DHT22;9205;52.032;4.314;2023-05-14T10:37:02;15.30;1.00
18160;DHT22;9205;52.032;4.314;2023-05-14T10:39:42;15.30;1.00
18160;DHT22;9205;52.032;4.314;2023-05-14T10:42:11;15.40;1.00
18160;DHT22;9205;52.032;4.314;2023-05-14T10:44:47;15.70;1.00
18160;DHT22;9205;52.032;4.314;2023-05-14T10:47:16;15.80;1.00
18160;DHT22;9205;52.032;4.314;2023-05-14T10:49:45;16.00;1.00
18160;DHT22;9205;52.032;4.314;2023-05-14T10:52:16;16.20;1.00
18160;DHT22;9205;52.032;4.314;2023-05-14T10:54:51;16.00;1.00
18160;DHT22;9205;52.032;4.314;2023-05-14T10:57:21;16.20;1.00
18160;DHT22;9205;52.032;4.314;2023-05-14T10:59:52;16.30;1.00
18160;DHT22;9205;52.032;4.314;2023-05-14T11:02:22;16.60;1.00
18160;DHT22;9205;52.032;4.314;2023-05-14T11:04:59;16.70;1.00
18160;DHT22;9205;52.032;4.314;2023-05-14T11:07:30;16.80;1.00
18160;DHT22;9205;52.032;4.314;2023-05-14T11:10:03;16.90;1.00
18160;DHT22;9205;52.032;4.314;2023-05-14T11:12:31;17.00;1.00
18160;DHT22;9205;52.032;4.314;2023-05-14T11:15:01;17.30;1.00
18160;DHT22;9205;52.032;4.314;2023-05-14T11:17:31;17.20;1.00
18160;DHT22;9205;52.032;4.314;2023-05-14T11:19:59;17.40;1.00
18160;DHT22;9205;52.032;4.314;2023-05-14T11:22:26;17.40;1.00
18160;DHT22;9205;52.032;4.314;2023-05-14T11:24:54;17.50;1.00
18160;DHT22;9205;52.032;4.314;2023-05-14T11:27:22;17.50;1.00
18160;DHT22;9205;52.032;4.314;2023-05-14T11:29:51;17.40;1.00
18160;DHT22;9205;52.032;4.314;2023-05-14T11:32:21;17.20;1.00
18160;DHT22;9205;52.032;4.314;2023-05-14T11:34:48;17.30;1.00
18160;DHT22;9205;52.032;4.314;2023-05-14T11:37:16;17.40;1.00
18160;DHT22;9205;52.032;4.314;2023-05-14T11:39:48;17.50;1.00
18160;DHT22;9205;52.032;4.314;2023-05-14T11:42:17;17.60;1.00
18160;DHT22;9205;52.032;4.314;2023-05-14T11:44:48;17.60;1.00
18160;DHT22;9205;52.032;4.314;2023-05-14T11:47:17;17.70;1.00
18160;DHT22;9205;52.032;4.314;2023-05-14T11:49:45;17.80;1.00
18160;DHT22;9205;52.032;4.314;2023-05-14T11:52:14;17.80;1.00
18160;DHT22;9205;52.032;4.314;2023-05-14T11:54:44;17.90;1.00
18160;DHT22;9205;52.032;4.314;2023-05-14T11:57:13;17.80;1.00
18160;DHT22;9205;52.032;4.314;2023-05-14T11:59:42;17.80;1.00
18160;DHT22;9205;52.032;4.314;2023-05-14T12:02:12;17.80;1.00
18160;DHT22;9205;52.032;4.314;2023-05-14T12:04:41;18.00;1.00
18160;DHT22;9205;52.032;4.314;2023-05-14T12:07:10;18.20;1.00
18160;DHT22;9205;52.032;4.314;2023-05-14T12:09:40;18.20;1.00
18160;DHT22;9205;52.032;4.314;2023-05-14T12:12:14;18.00;1.00
18160;DHT22;9205;52.032;4.314;2023-05-14T12:14:44;17.90;1.00
18160;DHT22;9205;52.032;4.314;2023-05-14T12:17:14;17.80;1.00
18160;DHT22;9205;52.032;4.314;2023-05-14T12:19:44;17.70;1.00
18160;DHT22;9205;52.032;4.314;2023-05-14T12:22:15;17.80;1.00
18160;DHT22;9205;52.032;4.314;2023-05-14T12:24:52;17.60;1.00
18160;DHT22;9205;52.032;4.314;2023-05-14T12:27:21;17.70;1.00
18160;DHT22;9205;52.032;4.314;2023-05-14T12:29:49;17.70;1.00
18160;DHT22;9205;52.032;4.314;2023-05-14T12:32:19;17.60;1.00
18160;DHT22;9205;52.032;4.314;2023-05-14T12:34:46;17.60;1.00
18160;DHT22;9205;52.032;4.314;2023-05-14T12:37:13;17.50;1.00
18160;DHT22;9205;52.032;4.314;2023-05-14T12:39:41;17.60;1.00
18160;DHT22;9205;52.032;4.314;2023-05-14T12:42:08;17.50;1.00
18160;DHT22;9205;52.032;4.314;2023-05-14T12:44:35;17.50;1.00
18160;DHT22;9205;52.032;4.314;2023-05-14T12:47:03;17.50;1.00
18160;DHT22;9205;52.032;4.314;2023-05-14T12:49:32;17.30;1.00
18160;DHT22;9205;52.032;4.314;2023-05-14T12:51:59;17.10;1.00
18160;DHT22;9205;52.032;4.314;2023-05-14T12:54:26;17.00;1.00
18160;DHT22;9205;52.032;4.314;2023-05-14T12:56:54;16.90;1.00
18160;DHT22;9205;52.032;4.314;2023-05-14T12:59:21;16.80;1.00
18160;DHT22;9205;52.032;4.314;2023-05-14T13:01:48;16.70;1.00
18160;DHT22;9205;52.032;4.314;2023-05-14T13:04:15;16.60;1.00
18160;DHT22;9205;52.032;4.314;2023-05-14T13:06:44;16.60;1.00
18160;DHT22;9205;52.032;4.314;2023-05-14T13:09:11;16.70;1.00
18160;DHT22;9205;52.032;4.314;2023-05-14T13:11:38;16.80;1.00
18160;DHT22;9205;52.032;4.314;2023-05-14T13:14:06;16.70;1.00
18160;DHT22;9205;52.032;4.314;2023-05-14T13:16:33;17.00;1.00
18160;DHT22;9205;52.032;4.314;2023-05-14T13:19:00;17.00;1.00
18160;DHT22;9205;52.032;4.314;2023-05-14T13:21:27;17.10;1.00
18160;DHT22;9205;52.032;4.314;2023-05-14T13:23:57;17.00;1.00
18160;DHT22;9205;52.032;4.314;2023-05-14T13:26:24;17.10;1.00
18160;DHT22;9205;52.032;4.314;2023-05-14T13:28:52;17.20;1.00
18160;DHT22;9205;52.032;4.314;2023-05-14T13:31:20;17.00;1.00
18160;DHT22;9205;52.032;4.314;2023-05-14T13:33:47;17.00;1.00
18160;DHT22;9205;52.032;4.314;2023-05-14T13:36:14;17.00;1.00
18160;DHT22;9205;52.032;4.314;2023-05-14T13:38:41;16.80;1.00
18160;DHT22;9205;52.032;4.314;2023-05-14T13:41:11;16.80;1.00
18160;DHT22;9205;52.032;4.314;2023-05-14T13:43:38;16.90;1.00
18160;DHT22;9205;52.032;4.314;2023-05-14T13:46:06;16.80;1.00
18160;DHT22;9205;52.032;4.314;2023-05-14T13:48:33;16.60;1.00
18160;DHT22;9205;52.032;4.314;2023-05-14T13:51:02;16.70;1.00
18160;DHT22;9205;52.032;4.314;2023-05-14T13:53:29;16.60;1.00
18160;DHT22;9205;52.032;4.314;2023-05-14T13:55:56;16.30;1.00
18160;DHT22;9205;52.032;4.314;2023-05-14T13:58:27;16.20;1.00
18160;DHT22;9205;52.032;4.314;2023-05-14T14:00:54;16.30;1.00
18160;DHT22;9205;52.032;4.314;2023-05-14T14:03:22;16.40;1.00
18160;DHT22;9205;52.032;4.314;2023-05-14T14:05:49;16.50;1.00
18160;DHT22;9205;52.032;4.314;2023-05-14T14:08:16;16.60;1.00
18160;DHT22;9205;52.032;4.314;2023-05-14T14:10:44;16.60;1.00
18160;DHT22;9205;52.032;4.314;2023-05-14T14:13:11;16.50;1.00
18160;DHT22;9205;52.032;4.314;2023-05-14T14:15:40;16.60;1.00
18160;DHT22;9205;52.032;4.314;2023-05-14T14:18:08;16.40;1.00
18160;DHT22;9205;52.032;4.314;2023-05-14T14:20:35;16.20;1.00
18160;DHT22;9205;52.032;4.314;2023-05-14T14:23:02;16.20;1.00
18160;DHT22;9205;52.032;4.314;2023-05-14T14:25:30;16.10;1.00
18160;DHT22;9205;52.032;4.314;2023-05-14T14:27:57;16.10;1.00
18160;DHT22;9205;52.032;4.314;2023-05-14T14:30:24;16.30;1.00
18160;DHT22;9205;52.032;4.314;2023-05-14T14:32:53;16.20;1.00
18160;DHT22;9205;52.032;4.314;2023-05-14T14:35:20;16.20;1.00
18160;DHT22;9205;52.032;4.314;2023-05-14T14:37:48;15.90;1.00
18160;DHT22;9205;52.032;4.314;2023-05-14T14:40:18;15.80;1.00
18160;DHT22;9205;52.032;4.314;2023-05-14T14:42:48;15.50;1.00
18160;DHT22;9205;52.032;4.314;2023-05-14T14:45:15;15.30;1.00
18160;DHT22;9205;52.032;4.314;2023-05-14T14:47:43;15.00;1.00
18160;DHT22;9205;52.032;4.314;2023-05-14T14:50:14;15.00;1.00
18160;DHT22;9205;52.032;4.314;2023-05-14T14:52:42;15.10;1.00
18160;DHT22;9205;52.032;4.314;2023-05-14T14:55:10;15.40;1.00
18160;DHT22;9205;52.032;4.314;2023-05-14T14:57:37;15.50;1.00
18160;DHT22;9205;52.032;4.314;2023-05-14T15:00:05;15.60;1.00
18160;DHT22;9205;52.032;4.314;2023-05-14T15:02:33;15.80;1.00
18160;DHT22;9205;52.032;4.314;2023-05-14T15:05:03;15.70;1.00
18160;DHT22;9205;52.032;4.314;2023-05-14T15:07:33;15.80;1.00
18160;DHT22;9205;52.032;4.314;2023-05-14T15:10:00;15.70;1.00
18160;DHT22;9205;52.032;4.314;2023-05-14T15:12:27;15.70;1.00
18160;DHT22;9205;52.032;4.314;2023-05-14T15:14:54;15.90;1.00
18160;DHT22;9205;52.032;4.314;2023-05-14T15:17:21;15.70;1.00
18160;DHT22;9205;52.032;4.314;2023-05-14T15:19:49;15.80;1.00
18160;DHT22;9205;52.032;4.314;2023-05-14T15:22:16;15.70;1.00
18160;DHT22;9205;52.032;4.314;2023-05-14T15:24:44;15.60;1.00
18160;DHT22;9205;52.032;4.314;2023-05-14T15:27:12;15.60;1.00
18160;DHT22;9205;52.032;4.314;2023-05-14T15:29:39;15.60;1.00
18160;DHT22;9205;52.032;4.314;2023-05-14T15:32:07;15.40;1.00
18160;DHT22;9205;52.032;4.314;2023-05-14T15:34:34;15.20;1.00
18160;DHT22;9205;52.032;4.314;2023-05-14T15:37:01;15.10;1.00
18160;DHT22;9205;52.032;4.314;2023-05-14T15:39:28;15.10;1.00
18160;DHT22;9205;52.032;4.314;2023-05-14T15:41:58;15.20;1.00
18160;DHT22;9205;52.032;4.314;2023-05-14T15:44:25;15.40;1.00
18160;DHT22;9205;52.032;4.314;2023-05-14T15:46:52;15.30;1.00
18160;DHT22;9205;52.032;4.314;2023-05-14T15:49:20;15.10;1.00
18160;DHT22;9205;52.032;4.314;2023-05-14T15:51:47;15.00;1.00
18160;DHT22;9205;52.032;4.314;2023-05-14T15:54:14;14.90;1.00
18160;DHT22;9205;52.032;4.314;2023-05-14T15:56:42;15.00;1.00
18160;DHT22;9205;52.032;4.314;2023-05-14T15:59:11;15.00;1.00